Terminal Aerodrome Forecast
Issued by NWS

Home | Current Version | Previous Version | Text Only | Print | Product List | Glossary On
Versions: 1 2 3 4 5 6 7 8 9 10 11 12 13 14 15 16 17 18 19 20
000
FTUS41 KOKX 302320
TAFSWF
TAF
KSWF 302320Z 3100/0106 25006KT P6SM SCT120
     FM310200 VRB03KT 6SM BR FEW250
      TEMPO 3108/3111 2SM BR SKC
     FM311200 27007KT P6SM SCT250
     FM311600 29010KT P6SM SCT050
     FM312200 28007KT P6SM FEW050
     FM010000 VRB02KT P6SM SKC
      AMD NOT SKED=

USA.gov is the U.S. government's official web portal to all federal, state and local government web resources and services.